sensor_id;sensor_type;location;lat;lon;timestamp;pressure;altitude;pressure_sealevel;temperature;humidity
11672;BME280;5892;43.412;24.612;2023-05-19T00:01:18;100145.88;;;12.95;100.00
11672;BME280;5892;43.412;24.612;2023-05-19T00:03:49;100138.94;;;12.89;100.00
11672;BME280;5892;43.412;24.612;2023-05-19T00:06:21;100139.44;;;12.91;100.00
11672;BME280;5892;43.412;24.612;2023-05-19T00:08:48;100126.00;;;12.90;100.00
11672;BME280;5892;43.412;24.612;2023-05-19T00:11:16;100138.31;;;12.92;100.00
11672;BME280;5892;43.412;24.612;2023-05-19T00:13:44;100129.88;;;12.89;100.00
11672;BME280;5892;43.412;24.612;2023-05-19T00:16:15;100135.72;;;12.87;100.00
11672;BME280;5892;43.412;24.612;2023-05-19T00:18:42;100127.00;;;12.85;100.00
11672;BME280;5892;43.412;24.612;2023-05-19T00:21:09;100128.63;;;12.86;100.00
11672;BME280;5892;43.412;24.612;2023-05-19T00:23:36;100138.00;;;12.85;100.00
11672;BME280;5892;43.412;24.612;2023-05-19T00:26:03;100144.00;;;12.79;100.00
11672;BME280;5892;43.412;24.612;2023-05-19T00:28:29;100135.94;;;12.73;100.00
11672;BME280;5892;43.412;24.612;2023-05-19T00:30:56;100142.06;;;12.79;100.00
11672;BME280;5892;43.412;24.612;2023-05-19T00:33:24;100131.25;;;12.74;100.00
11672;BME280;5892;43.412;24.612;2023-05-19T00:35:51;100146.59;;;12.75;100.00
11672;BME280;5892;43.412;24.612;2023-05-19T00:38:18;100132.28;;;12.61;100.00
11672;BME280;5892;43.412;24.612;2023-05-19T00:40:45;100154.38;;;12.73;100.00
11672;BME280;5892;43.412;24.612;2023-05-19T00:43:12;100143.06;;;12.74;100.00
11672;BME280;5892;43.412;24.612;2023-05-19T00:45:39;100149.03;;;12.68;100.00
11672;BME280;5892;43.412;24.612;2023-05-19T00:48:06;100147.28;;;12.63;100.00
11672;BME280;5892;43.412;24.612;2023-05-19T00:50:34;100155.66;;;12.67;100.00
11672;BME280;5892;43.412;24.612;2023-05-19T00:53:01;100158.59;;;12.70;100.00
11672;BME280;5892;43.412;24.612;2023-05-19T00:55:30;100153.72;;;12.67;100.00
11672;BME280;5892;43.412;24.612;2023-05-19T00:57:57;100141.66;;;12.60;100.00
11672;BME280;5892;43.412;24.612;2023-05-19T01:00:24;100145.53;;;12.59;100.00
11672;BME280;5892;43.412;24.612;2023-05-19T01:02:51;100142.91;;;12.62;100.00
11672;BME280;5892;43.412;24.612;2023-05-19T01:05:18;100143.91;;;12.58;100.00
11672;BME280;5892;43.412;24.612;2023-05-19T01:07:46;100142.63;;;12.55;100.00
11672;BME280;5892;43.412;24.612;2023-05-19T01:10:17;100132.63;;;12.51;100.00
11672;BME280;5892;43.412;24.612;2023-05-19T01:12:44;100143.91;;;12.58;100.00
11672;BME280;5892;43.412;24.612;2023-05-19T01:15:11;100143.44;;;12.56;100.00
11672;BME280;5892;43.412;24.612;2023-05-19T01:17:42;100157.00;;;12.52;100.00
11672;BME280;5892;43.412;24.612;2023-05-19T01:20:17;100140.38;;;12.49;100.00
11672;BME280;5892;43.412;24.612;2023-05-19T01:23:15;100142.16;;;12.45;100.00
11672;BME280;5892;43.412;24.612;2023-05-19T01:29:06;100140.91;;;12.34;100.00
11672;BME280;5892;43.412;24.612;2023-05-19T01:31:36;100146.84;;;12.36;100.00
11672;BME280;5892;43.412;24.612;2023-05-19T01:34:05;100148.34;;;12.33;100.00
11672;BME280;5892;43.412;24.612;2023-05-19T01:36:32;100145.91;;;12.40;100.00
11672;BME280;5892;43.412;24.612;2023-05-19T01:39:00;100149.94;;;12.34;100.00
11672;BME280;5892;43.412;24.612;2023-05-19T01:41:28;100151.72;;;12.39;100.00
11672;BME280;5892;43.412;24.612;2023-05-19T01:43:57;100154.94;;;12.41;100.00
11672;BME280;5892;43.412;24.612;2023-05-19T01:46:24;100159.28;;;12.50;100.00
11672;BME280;5892;43.412;24.612;2023-05-19T01:48:52;100154.63;;;12.34;100.00
11672;BME280;5892;43.412;24.612;2023-05-19T01:51:20;100159.63;;;12.31;100.00
11672;BME280;5892;43.412;24.612;2023-05-19T01:53:47;100154.94;;;12.41;100.00
11672;BME280;5892;43.412;24.612;2023-05-19T01:56:15;100155.25;;;12.48;100.00
11672;BME280;5892;43.412;24.612;2023-05-19T01:58:52;100163.81;;;12.55;100.00
11672;BME280;5892;43.412;24.612;2023-05-19T02:01:29;100157.19;;;12.56;100.00
11672;BME280;5892;43.412;24.612;2023-05-19T02:04:10;100159.09;;;12.64;100.00
11672;BME280;5892;43.412;24.612;2023-05-19T02:06:41;100156.84;;;12.66;100.00
11672;BME280;5892;43.412;24.612;2023-05-19T02:09:14;100165.72;;;12.63;100.00
11672;BME280;5892;43.412;24.612;2023-05-19T02:11:46;100147.19;;;12.43;100.00
11672;BME280;5892;43.412;24.612;2023-05-19T02:14:19;100163.13;;;12.66;100.00
11672;BME280;5892;43.412;24.612;2023-05-19T02:16:49;100169.72;;;12.74;100.00
11672;BME280;5892;43.412;24.612;2023-05-19T02:19:23;100168.13;;;12.73;100.00
11672;BME280;5892;43.412;24.612;2023-05-19T02:21:50;100178.94;;;12.87;100.00
11672;BME280;5892;43.412;24.612;2023-05-19T02:24:17;100180.19;;;12.89;100.00
11672;BME280;5892;43.412;24.612;2023-05-19T02:26:44;100193.31;;;12.92;100.00
11672;BME280;5892;43.412;24.612;2023-05-19T02:29:11;100188.75;;;12.96;100.00
11672;BME280;5892;43.412;24.612;2023-05-19T02:31:38;100186.63;;;13.02;100.00
11672;BME280;5892;43.412;24.612;2023-05-19T02:34:05;100196.81;;;13.01;100.00
11672;BME280;5892;43.412;24.612;2023-05-19T02:36:34;100198.59;;;13.06;100.00
11672;BME280;5892;43.412;24.612;2023-05-19T02:39:02;100195.16;;;13.09;100.00
11672;BME280;5892;43.412;24.612;2023-05-19T02:41:31;100173.38;;;12.95;100.00
11672;BME280;5892;43.412;24.612;2023-05-19T02:43:58;100194.53;;;13.03;100.00
11672;BME280;5892;43.412;24.612;2023-05-19T02:46:25;100201.00;;;13.07;100.00
11672;BME280;5892;43.412;24.612;2023-05-19T02:48:52;100210.25;;;13.11;100.00
11672;BME280;5892;43.412;24.612;2023-05-19T02:51:19;100214.91;;;13.11;100.00
11672;BME280;5892;43.412;24.612;2023-05-19T02:53:47;100220.13;;;13.12;100.00
11672;BME280;5892;43.412;24.612;2023-05-19T02:56:14;100220.94;;;13.13;100.00
11672;BME280;5892;43.412;24.612;2023-05-19T02:58:40;100216.03;;;13.10;100.00
11672;BME280;5892;43.412;24.612;2023-05-19T03:01:09;100222.53;;;13.05;100.00
11672;BME280;5892;43.412;24.612;2023-05-19T03:03:36;100222.53;;;13.05;100.00
11672;BME280;5892;43.412;24.612;2023-05-19T03:06:03;100219.47;;;13.07;100.00
11672;BME280;5892;43.412;24.612;2023-05-19T03:08:33;100229.66;;;13.06;100.00
11672;BME280;5892;43.412;24.612;2023-05-19T03:11:01;100211.41;;;12.93;100.00
11672;BME280;5892;43.412;24.612;2023-05-19T03:13:28;100228.69;;;13.02;100.00
11672;BME280;5892;43.412;24.612;2023-05-19T03:15:55;100240.16;;;13.04;100.00
11672;BME280;5892;43.412;24.612;2023-05-19T03:18:23;100240.97;;;13.05;100.00
11672;BME280;5892;43.412;24.612;2023-05-19T03:20:50;100224.97;;;12.98;100.00
11672;BME280;5892;43.412;24.612;2023-05-19T03:23:18;100231.63;;;12.97;100.00
11672;BME280;5892;43.412;24.612;2023-05-19T03:25:45;100235.34;;;13.01;100.00
11672;BME280;5892;43.412;24.612;2023-05-19T03:28:13;100239.53;;;13.07;100.00
11672;BME280;5892;43.412;24.612;2023-05-19T03:30:40;100243.06;;;13.17;100.00
11672;BME280;5892;43.412;24.612;2023-05-19T03:33:07;100239.19;;;13.18;100.00
11672;BME280;5892;43.412;24.612;2023-05-19T03:35:33;100231.75;;;13.18;100.00
11672;BME280;5892;43.412;24.612;2023-05-19T03:38:00;100241.59;;;13.19;100.00
11672;BME280;5892;43.412;24.612;2023-05-19T03:40:27;100244.84;;;13.21;100.00
11672;BME280;5892;43.412;24.612;2023-05-19T03:42:54;100243.56;;;13.19;100.00
11672;BME280;5892;43.412;24.612;2023-05-19T03:45:22;100245.66;;;13.22;100.00
11672;BME280;5892;43.412;24.612;2023-05-19T03:47:50;100261.13;;;13.35;100.00
11672;BME280;5892;43.412;24.612;2023-05-19T03:50:17;100251.75;;;13.36;100.00
11672;BME280;5892;43.412;24.612;2023-05-19T03:52:44;100258.19;;;13.40;100.00
11672;BME280;5892;43.412;24.612;2023-05-19T03:55:12;100245.06;;;13.45;100.00
11672;BME280;5892;43.412;24.612;2023-05-19T03:57:40;100245.47;;;13.56;100.00
11672;BME280;5892;43.412;24.612;2023-05-19T04:00:08;100258.69;;;13.71;100.00
11672;BME280;5892;43.412;24.612;2023-05-19T04:02:38;100266.22;;;13.83;100.00
11672;BME280;5892;43.412;24.612;2023-05-19T04:05:05;100238.97;;;13.90;100.00
11672;BME280;5892;43.412;24.612;2023-05-19T04:07:32;100248.16;;;14.03;100.00
11672;BME280;5892;43.412;24.612;2023-05-19T04:10:01;100264.41;;;14.16;100.00
11672;BME280;5892;43.412;24.612;2023-05-19T04:12:27;100259.31;;;14.27;100.00
11672;BME280;5892;43.412;24.612;2023-05-19T04:14:54;100270.06;;;14.40;100.00
11672;BME280;5892;43.412;24.612;2023-05-19T04:17:21;100265.13;;;14.55;100.00
11672;BME280;5892;43.412;24.612;2023-05-19T04:19:52;100275.75;;;14.77;100.00
11672;BME280;5892;43.412;24.612;2023-05-19T04:22:19;100266.03;;;14.92;100.00
11672;BME280;5892;43.412;24.612;2023-05-19T04:24:45;100271.38;;;15.09;100.00
11672;BME280;5892;43.412;24.612;2023-05-19T04:27:13;100268.22;;;15.43;100.00
11672;BME280;5892;43.412;24.612;2023-05-19T04:29:40;100237.84;;;15.43;100.00
11672;BME280;5892;43.412;24.612;2023-05-19T04:32:07;100285.75;;;15.72;100.00
11672;BME280;5892;43.412;24.612;2023-05-19T04:34:35;100283.53;;;16.14;100.00
11672;BME280;5892;43.412;24.612;2023-05-19T04:37:06;100279.91;;;16.37;100.00
11672;BME280;5892;43.412;24.612;2023-05-19T04:39:34;100288.41;;;16.44;100.00
11672;BME280;5892;43.412;24.612;2023-05-19T04:42:04;100284.88;;;17.00;100.00
11672;BME280;5892;43.412;24.612;2023-05-19T04:44:31;100281.56;;;17.38;100.00
11672;BME280;5892;43.412;24.612;2023-05-19T04:46:58;100291.38;;;17.82;100.00
11672;BME280;5892;43.412;24.612;2023-05-19T04:49:25;100305.03;;;18.06;100.00
11672;BME280;5892;43.412;24.612;2023-05-19T04:51:52;100302.47;;;18.33;100.00
11672;BME280;5892;43.412;24.612;2023-05-19T04:54:20;100301.38;;;18.37;100.00
11672;BME280;5892;43.412;24.612;2023-05-19T04:56:47;100291.69;;;18.47;100.00
11672;BME280;5892;43.412;24.612;2023-05-19T04:59:13;100299.69;;;18.68;100.00
11672;BME280;5892;43.412;24.612;2023-05-19T05:01:40;100297.72;;;18.68;100.00
11672;BME280;5892;43.412;24.612;2023-05-19T05:04:07;100311.59;;;18.87;100.00
11672;BME280;5892;43.412;24.612;2023-05-19T05:06:34;100297.44;;;18.73;100.00
11672;BME280;5892;43.412;24.612;2023-05-19T05:09:03;100303.63;;;19.05;100.00
11672;BME280;5892;43.412;24.612;2023-05-19T05:11:31;100312.00;;;19.09;100.00
11672;BME280;5892;43.412;24.612;2023-05-19T05:13:59;100310.47;;;19.11;100.00
11672;BME280;5892;43.412;24.612;2023-05-19T05:16:26;100316.38;;;19.29;100.00
11672;BME280;5892;43.412;24.612;2023-05-19T05:18:54;100310.56;;;19.57;100.00
11672;BME280;5892;43.412;24.612;2023-05-19T05:21:22;100318.09;;;19.56;100.00
11672;BME280;5892;43.412;24.612;2023-05-19T05:23:49;100313.28;;;19.79;100.00
11672;BME280;5892;43.412;24.612;2023-05-19T05:26:17;100294.16;;;19.74;100.00
11672;BME280;5892;43.412;24.612;2023-05-19T05:28:47;100315.47;;;20.16;100.00
11672;BME280;5892;43.412;24.612;2023-05-19T05:31:14;100322.00;;;20.27;100.00
11672;BME280;5892;43.412;24.612;2023-05-19T05:33:41;100317.91;;;20.21;100.00
11672;BME280;5892;43.412;24.612;2023-05-19T05:36:08;100321.75;;;20.09;100.00
11672;BME280;5892;43.412;24.612;2023-05-19T05:38:35;100316.78;;;20.25;100.00
11672;BME280;5892;43.412;24.612;2023-05-19T05:41:02;100332.56;;;20.41;100.00
11672;BME280;5892;43.412;24.612;2023-05-19T05:43:29;100323.47;;;20.21;100.00
11672;BME280;5892;43.412;24.612;2023-05-19T05:45:57;100338.13;;;20.41;100.00
11672;BME280;5892;43.412;24.612;2023-05-19T05:48:25;100333.97;;;20.57;100.00
11672;BME280;5892;43.412;24.612;2023-05-19T05:50:52;100330.50;;;20.64;100.00
11672;BME280;5892;43.412;24.612;2023-05-19T05:53:23;100332.91;;;20.65;99.43
11672;BME280;5892;43.412;24.612;2023-05-19T05:55:51;100342.47;;;20.68;100.00
11672;BME280;5892;43.412;24.612;2023-05-19T05:58:18;100351.19;;;20.96;98.82
11672;BME280;5892;43.412;24.612;2023-05-19T06:00:46;100351.56;;;21.25;85.13
11672;BME280;5892;43.412;24.612;2023-05-19T06:03:17;100335.44;;;21.11;85.80
11672;BME280;5892;43.412;24.612;2023-05-19T06:05:48;100341.72;;;21.34;84.57
11672;BME280;5892;43.412;24.612;2023-05-19T06:08:15;100351.16;;;21.26;85.28
11672;BME280;5892;43.412;24.612;2023-05-19T06:10:42;100354.63;;;21.49;84.65
11672;BME280;5892;43.412;24.612;2023-05-19T06:13:09;100356.44;;;21.72;82.95
11672;BME280;5892;43.412;24.612;2023-05-19T06:15:36;100351.00;;;21.45;84.24
11672;BME280;5892;43.412;24.612;2023-05-19T06:18:05;100356.00;;;21.70;83.36
11672;BME280;5892;43.412;24.612;2023-05-19T06:20:33;100350.31;;;21.55;84.16
11672;BME280;5892;43.412;24.612;2023-05-19T06:23:01;100353.22;;;21.70;82.76
11672;BME280;5892;43.412;24.612;2023-05-19T06:25:28;100339.94;;;21.56;83.01
11672;BME280;5892;43.412;24.612;2023-05-19T06:27:55;100347.72;;;21.77;82.84
11672;BME280;5892;43.412;24.612;2023-05-19T06:30:22;100346.16;;;21.83;82.95
11672;BME280;5892;43.412;24.612;2023-05-19T06:32:49;100342.44;;;22.12;81.82
11672;BME280;5892;43.412;24.612;2023-05-19T06:35:16;100343.19;;;22.09;81.44
11672;BME280;5892;43.412;24.612;2023-05-19T06:37:44;100343.44;;;21.93;82.52
11672;BME280;5892;43.412;24.612;2023-05-19T06:40:11;100351.13;;;22.04;82.94
11672;BME280;5892;43.412;24.612;2023-05-19T06:42:39;100346.03;;;22.13;81.98
11672;BME280;5892;43.412;24.612;2023-05-19T06:45:06;100355.16;;;22.10;81.53
11672;BME280;5892;43.412;24.612;2023-05-19T06:47:33;100353.66;;;22.19;82.30
11672;BME280;5892;43.412;24.612;2023-05-19T06:50:00;100349.06;;;22.52;81.75
11672;BME280;5892;43.412;24.612;2023-05-19T06:52:27;100345.94;;;22.60;79.71
11672;BME280;5892;43.412;24.612;2023-05-19T06:54:55;100347.00;;;22.34;80.70
11672;BME280;5892;43.412;24.612;2023-05-19T06:57:22;100345.16;;;22.60;80.87
11672;BME280;5892;43.412;24.612;2023-05-19T06:59:49;100357.13;;;22.64;80.10
11672;BME280;5892;43.412;24.612;2023-05-19T07:02:16;100361.53;;;22.65;79.22
11672;BME280;5892;43.412;24.612;2023-05-19T07:04:43;100350.75;;;22.67;79.61
11672;BME280;5892;43.412;24.612;2023-05-19T07:07:10;100351.69;;;22.85;80.11
11672;BME280;5892;43.412;24.612;2023-05-19T07:09:37;100353.34;;;23.00;79.66
11672;BME280;5892;43.412;24.612;2023-05-19T07:12:08;100349.75;;;23.00;78.66
11672;BME280;5892;43.412;24.612;2023-05-19T07:14:35;100350.06;;;22.84;78.50
11672;BME280;5892;43.412;24.612;2023-05-19T07:17:03;100351.69;;;22.89;80.16
11672;BME280;5892;43.412;24.612;2023-05-19T07:19:30;100351.63;;;22.74;80.35
11672;BME280;5892;43.412;24.612;2023-05-19T07:21:57;100352.13;;;22.98;78.82
11672;BME280;5892;43.412;24.612;2023-05-19T07:24:24;100332.16;;;22.96;78.35
11672;BME280;5892;43.412;24.612;2023-05-19T07:26:53;100349.75;;;23.00;78.57
11672;BME280;5892;43.412;24.612;2023-05-19T07:29:21;100334.97;;;22.99;77.68
11672;BME280;5892;43.412;24.612;2023-05-19T07:31:48;100324.97;;;22.95;78.23
11672;BME280;5892;43.412;24.612;2023-05-19T07:34:19;100343.06;;;23.40;77.86
11672;BME280;5892;43.412;24.612;2023-05-19T07:36:46;100338.75;;;23.49;75.77
11672;BME280;5892;43.412;24.612;2023-05-19T07:39:13;100341.56;;;23.74;75.33
11672;BME280;5892;43.412;24.612;2023-05-19T07:41:40;100326.38;;;23.64;76.72
11672;BME280;5892;43.412;24.612;2023-05-19T07:44:07;100335.97;;;23.78;75.19
11672;BME280;5892;43.412;24.612;2023-05-19T07:46:36;100316.38;;;23.92;75.47
11672;BME280;5892;43.412;24.612;2023-05-19T07:49:03;100337.16;;;24.05;74.98
11672;BME280;5892;43.412;24.612;2023-05-19T07:51:29;100329.16;;;24.03;68.51
11672;BME280;5892;43.412;24.612;2023-05-19T07:53:57;100332.75;;;24.32;67.27
11672;BME280;5892;43.412;24.612;2023-05-19T07:56:23;100325.97;;;23.87;67.17
11672;BME280;5892;43.412;24.612;2023-05-19T07:58:50;100328.19;;;23.00;71.53
11672;BME280;5892;43.412;24.612;2023-05-19T08:01:17;100325.16;;;23.55;71.32
11672;BME280;5892;43.412;24.612;2023-05-19T08:03:45;100323.94;;;23.52;71.19
11672;BME280;5892;43.412;24.612;2023-05-19T08:06:12;100330.75;;;23.83;68.66
11672;BME280;5892;43.412;24.612;2023-05-19T08:08:39;100332.78;;;23.97;68.00
11672;BME280;5892;43.412;24.612;2023-05-19T08:11:06;100320.38;;;23.59;68.97
11672;BME280;5892;43.412;24.612;2023-05-19T08:13:33;100329.56;;;23.63;70.13
11672;BME280;5892;43.412;24.612;2023-05-19T08:16:00;100335.56;;;23.93;69.89
11672;BME280;5892;43.412;24.612;2023-05-19T08:18:27;100342.34;;;23.57;69.58
11672;BME280;5892;43.412;24.612;2023-05-19T08:20:55;100332.69;;;23.40;69.73
11672;BME280;5892;43.412;24.612;2023-05-19T08:23:23;100327.41;;;23.07;69.49
11672;BME280;5892;43.412;24.612;2023-05-19T08:25:50;100338.75;;;23.53;69.21
11672;BME280;5892;43.412;24.612;2023-05-19T08:28:17;100342.34;;;23.68;68.55
11672;BME280;5892;43.412;24.612;2023-05-19T08:30:44;100345.94;;;23.93;68.42
11672;BME280;5892;43.412;24.612;2023-05-19T08:33:11;100354.34;;;23.68;67.48
11672;BME280;5892;43.412;24.612;2023-05-19T08:35:37;100354.38;;;23.86;67.69
11672;BME280;5892;43.412;24.612;2023-05-19T08:38:06;100352.34;;;24.15;66.89
11672;BME280;5892;43.412;24.612;2023-05-19T08:40:33;100351.97;;;24.05;67.70
11672;BME280;5892;43.412;24.612;2023-05-19T08:43:03;100349.16;;;24.20;66.90
11672;BME280;5892;43.412;24.612;2023-05-19T08:45:30;100347.16;;;24.24;66.32
11672;BME280;5892;43.412;24.612;2023-05-19T08:47:59;100357.19;;;24.18;65.12
11672;BME280;5892;43.412;24.612;2023-05-19T08:50:29;100320.75;;;23.82;66.54
11672;BME280;5892;43.412;24.612;2023-05-19T08:53:00;100352.34;;;23.83;66.25
11672;BME280;5892;43.412;24.612;2023-05-19T08:55:34;100346.75;;;24.29;64.80
11672;BME280;5892;43.412;24.612;2023-05-19T08:58:02;100344.72;;;24.47;64.61
11672;BME280;5892;43.412;24.612;2023-05-19T09:00:31;100288.34;;;24.31;63.70
11672;BME280;5892;43.412;24.612;2023-05-19T09:02:59;100332.38;;;24.27;63.80
11672;BME280;5892;43.412;24.612;2023-05-19T09:05:26;100336.78;;;24.21;64.92
11672;BME280;5892;43.412;24.612;2023-05-19T09:07:53;100339.56;;;24.38;64.11
11672;BME280;5892;43.412;24.612;2023-05-19T09:10:21;100341.56;;;23.85;63.89
11672;BME280;5892;43.412;24.612;2023-05-19T09:12:50;100337.56;;;23.82;65.78
11672;BME280;5892;43.412;24.612;2023-05-19T09:15:17;100335.94;;;24.02;65.93
11672;BME280;5892;43.412;24.612;2023-05-19T09:17:44;100342.38;;;24.21;66.88
11672;BME280;5892;43.412;24.612;2023-05-19T09:20:12;100339.53;;;23.71;65.20
11672;BME280;5892;43.412;24.612;2023-05-19T09:22:41;100333.56;;;23.69;65.81
11672;BME280;5892;43.412;24.612;2023-05-19T09:25:18;100330.78;;;23.66;65.10
11672;BME280;5892;43.412;24.612;2023-05-19T09:27:46;100335.16;;;23.84;67.92
11672;BME280;5892;43.412;24.612;2023-05-19T09:30:16;100342.34;;;23.92;66.72
11672;BME280;5892;43.412;24.612;2023-05-19T09:32:43;100333.94;;;23.53;64.77
11672;BME280;5892;43.412;24.612;2023-05-19T09:35:11;100329.16;;;23.68;65.32
11672;BME280;5892;43.412;24.612;2023-05-19T09:37:39;100331.56;;;23.62;64.83
11672;BME280;5892;43.412;24.612;2023-05-19T09:40:07;100321.56;;;23.93;65.72
11672;BME280;5892;43.412;24.612;2023-05-19T09:42:36;100326.38;;;24.25;65.34
11672;BME280;5892;43.412;24.612;2023-05-19T09:45:05;100319.53;;;24.47;62.77
11672;BME280;5892;43.412;24.612;2023-05-19T09:47:37;100323.47;;;24.64;61.46
11672;BME280;5892;43.412;24.612;2023-05-19T09:50:07;100319.91;;;24.53;60.50
11672;BME280;5892;43.412;24.612;2023-05-19T09:52:35;100314.31;;;24.49;59.30
11672;BME280;5892;43.412;24.612;2023-05-19T09:55:04;100322.19;;;24.86;58.40
11672;BME280;5892;43.412;24.612;2023-05-19T09:57:34;100326.09;;;25.17;57.49
11672;BME280;5892;43.412;24.612;2023-05-19T10:00:04;100309.38;;;24.96;59.74
11672;BME280;5892;43.412;24.612;2023-05-19T10:02:42;100318.63;;;24.78;60.82
11672;BME280;5892;43.412;24.612;2023-05-19T10:05:13;100301.88;;;24.64;62.74
11672;BME280;5892;43.412;24.612;2023-05-19T10:07:42;100321.41;;;24.89;62.36
11672;BME280;5892;43.412;24.612;2023-05-19T10:10:11;100297.16;;;24.26;62.66
11672;BME280;5892;43.412;24.612;2023-05-19T10:12:39;100305.59;;;23.80;62.53
11672;BME280;5892;43.412;24.612;2023-05-19T10:15:11;100243.97;;;23.16;62.77
11672;BME280;5892;43.412;24.612;2023-05-19T10:17:39;100307.16;;;24.05;61.69
11672;BME280;5892;43.412;24.612;2023-05-19T10:20:10;100295.16;;;24.19;63.10
11672;BME280;5892;43.412;24.612;2023-05-19T10:22:38;100291.59;;;23.90;61.08
11672;BME280;5892;43.412;24.612;2023-05-19T10:25:07;100299.19;;;23.93;61.77
11672;BME280;5892;43.412;24.612;2023-05-19T10:27:36;100294.78;;;23.99;63.70
11672;BME280;5892;43.412;24.612;2023-05-19T10:30:07;100277.97;;;24.06;64.23
11672;BME280;5892;43.412;24.612;2023-05-19T10:32:37;100290.38;;;24.27;64.21
11672;BME280;5892;43.412;24.612;2023-05-19T10:35:17;100292.69;;;24.46;63.38
11672;BME280;5892;43.412;24.612;2023-05-19T10:37:54;100281.16;;;24.19;62.29
11672;BME280;5892;43.412;24.612;2023-05-19T10:40:27;100298.38;;;23.96;60.74
11672;BME280;5892;43.412;24.612;2023-05-19T10:43:14;100282.34;;;24.36;60.30
11672;BME280;5892;43.412;24.612;2023-05-19T10:45:47;100280.34;;;24.36;59.38
11672;BME280;5892;43.412;24.612;2023-05-19T10:48:14;100285.84;;;24.61;59.44
11672;BME280;5892;43.412;24.612;2023-05-19T10:50:44;100268.28;;;24.50;60.49
11672;BME280;5892;43.412;24.612;2023-05-19T10:53:15;100279.03;;;24.69;59.80
11672;BME280;5892;43.412;24.612;2023-05-19T10:55:50;100275.88;;;24.53;57.38
11672;BME280;5892;43.412;24.612;2023-05-19T10:58:36;100289.38;;;24.83;58.35
11672;BME280;5892;43.412;24.612;2023-05-19T11:01:06;100271.47;;;24.56;56.96
11672;BME280;5892;43.412;24.612;2023-05-19T11:03:44;100277.69;;;24.99;56.57
11672;BME280;5892;43.412;24.612;2023-05-19T11:06:24;100291.84;;;24.63;56.29
11672;BME280;5892;43.412;24.612;2023-05-19T11:08:58;100272.00;;;24.01;58.31
11672;BME280;5892;43.412;24.612;2023-05-19T11:11:27;100275.09;;;24.45;57.82
11672;BME280;5892;43.412;24.612;2023-05-19T11:14:10;100256.56;;;24.80;58.94
11672;BME280;5892;43.412;24.612;2023-05-19T11:16:38;100279.63;;;25.16;57.12
11672;BME280;5892;43.412;24.612;2023-05-19T11:19:07;100272.34;;;25.25;57.90
11672;BME280;5892;43.412;24.612;2023-05-19T11:21:46;100281.00;;;25.45;56.63
11672;BME280;5892;43.412;24.612;2023-05-19T11:24:32;100273.78;;;25.48;55.63
11672;BME280;5892;43.412;24.612;2023-05-19T11:27:16;100256.06;;;25.61;55.26
11672;BME280;5892;43.412;24.612;2023-05-19T11:29:43;100270.59;;;25.46;55.83
11672;BME280;5892;43.412;24.612;2023-05-19T11:32:11;100258.78;;;25.13;54.96
11672;BME280;5892;43.412;24.612;2023-05-19T11:34:39;100265.16;;;25.21;57.01
11672;BME280;5892;43.412;24.612;2023-05-19T11:37:07;100244.94;;;25.44;56.68
11672;BME280;5892;43.412;24.612;2023-05-19T11:39:34;100247.09;;;25.77;55.53
11672;BME280;5892;43.412;24.612;2023-05-19T11:42:01;100249.63;;;25.64;55.29
11672;BME280;5892;43.412;24.612;2023-05-19T11:44:28;100247.19;;;26.11;55.28
11672;BME280;5892;43.412;24.612;2023-05-19T11:46:55;100244.56;;;26.31;53.50
11672;BME280;5892;43.412;24.612;2023-05-19T11:49:22;100236.81;;;26.42;52.84
11672;BME280;5892;43.412;24.612;2023-05-19T11:51:49;100231.28;;;26.69;51.56
11672;BME280;5892;43.412;24.612;2023-05-19T11:54:17;100230.53;;;26.95;50.85
11672;BME280;5892;43.412;24.612;2023-05-19T11:56:44;100237.38;;;27.21;47.78
11672;BME280;5892;43.412;24.612;2023-05-19T11:59:11;100236.16;;;26.31;47.88
11672;BME280;5892;43.412;24.612;2023-05-19T12:01:38;100226.00;;;25.55;48.67
11672;BME280;5892;43.412;24.612;2023-05-19T12:04:07;100236.19;;;25.35;51.07
11672;BME280;5892;43.412;24.612;2023-05-19T12:06:34;100221.94;;;25.66;49.12
11672;BME280;5892;43.412;24.612;2023-05-19T12:09:04;100223.09;;;25.72;49.34
11672;BME280;5892;43.412;24.612;2023-05-19T12:11:33;100235.91;;;25.22;50.40
11672;BME280;5892;43.412;24.612;2023-05-19T12:14:00;100229.78;;;25.34;51.24
11672;BME280;5892;43.412;24.612;2023-05-19T12:16:33;100222.81;;;25.05;51.08
11672;BME280;5892;43.412;24.612;2023-05-19T12:19:00;100214.50;;;24.91;52.32
11672;BME280;5892;43.412;24.612;2023-05-19T12:21:33;100210.50;;;24.88;53.25
11672;BME280;5892;43.412;24.612;2023-05-19T12:24:00;100212.72;;;24.38;59.22
11672;BME280;5892;43.412;24.612;2023-05-19T12:26:27;100219.50;;;24.40;60.13
11672;BME280;5892;43.412;24.612;2023-05-19T12:28:55;100206.69;;;24.43;60.86
11672;BME280;5892;43.412;24.612;2023-05-19T12:31:22;100208.88;;;24.83;60.49
11672;BME280;5892;43.412;24.612;2023-05-19T12:33:49;100215.63;;;25.00;60.00
11672;BME280;5892;43.412;24.612;2023-05-19T12:36:16;100211.34;;;25.37;59.32
11672;BME280;5892;43.412;24.612;2023-05-19T12:38:43;100207.09;;;25.69;57.44
11672;BME280;5892;43.412;24.612;2023-05-19T12:41:12;100189.00;;;25.70;55.72
11672;BME280;5892;43.412;24.612;2023-05-19T12:43:39;100202.72;;;26.02;55.62
11672;BME280;5892;43.412;24.612;2023-05-19T12:46:11;100199.72;;;26.20;54.95
11672;BME280;5892;43.412;24.612;2023-05-19T12:48:42;100206.59;;;26.49;55.54
11672;BME280;5892;43.412;24.612;2023-05-19T12:51:09;100149.69;;;26.11;54.34
11672;BME280;5892;43.412;24.612;2023-05-19T12:53:36;100211.72;;;26.58;55.09
11672;BME280;5892;43.412;24.612;2023-05-19T12:56:10;100207.66;;;26.29;52.58